Accueil
METAR-TAF:

METAR-TAF

Aéroports :

Phrae, Thaïlande

latitude: 18-10N, longitude: 100-10E, altitude: 161 m

Observation

Le bulletin a été fait il y a 16 minutes, à 02:00 UTC
Vent 4 kt de ouest/sud-ouest, variant entre sud et ouest/nord-ouest
Température 31°C
Humidité 75%
Pression 1005 hPa
Visibilité 10 km ou plus
Quelques nuages à une hauteur de 4000 ft

METAR: VTCP 220200Z 24004KT 170V300 9999 FEW040 31/26 Q1005 NOSIG

Heure: 09:16 (02:16 UTC)

Prévision

Le bulletin a été fait il y a 3 heures et 16 minutes, à 23:00 UTC
Prévision valable du 22 à 00 UTC au 22 à 24 UTC
Vent 5 kt de sud-ouest
Visibilité 10 km ou plus
Nuages épars à une hauteur de 3500 ft
Temporairement
du 22 à 10 UTC au 22 à 12 UTC
Quelques nuages à une hauteur de 2000 ft, Cumulonimbus.
Nuages fragmentés à une hauteur de 3000 ft
orage, pluie faible,

TAF: VTCP 212300Z 2200/2224 22005KT 9999 SCT035 TEMPO 2210/2212 -TSRA FEW020CB BKN030

Observations et prévisions météorologiques de plus de 4000 aéroports (messages METAR et TAF).

Les stations disponibles sont représentées par des disques jaunes et rouges sur la carte.

Passer la souris dessus pour voir le nom de la station.

Cliquer dessus pour voir les observations et prévisions météorologiques.

Pour changer de carte: cliquez sur les boutons verts avec une croix noire pour zoomer, sur le bouton vert avec un tiret pour effectuer un zoom arrière, ou sur les flèches vertes pour les cartes adjacentes.


METAR-TAF: